Terminal Aerodrome Forecast
Issued by NWS

Home | Current Version | Previous Version | Text Only | Print | Product List | Glossary On
Versions: 1 2 3 4 5 6 7 8 9 10 11 12 13 14 15 16 17 18 19 20 21 22 23 24 25 26 27 28 29 30 31 32 33 34 35 36 37 38 39 40 41 42 43 44 45 46
000
FTUS45 KBOU 171907 AAA
TAFBJC
TAF AMD
KBJC 171907Z 1719/1818 25016G24KT P6SM FEW120 BKN220
     FM180100 33025G35KT P6SM VCSH SCT030 BKN080
      TEMPO 1802/1806 -SHRASN OVC020
     FM181000 32013KT P6SM SCT090
     FM181300 20006KT P6SM FEW110=

USA.gov is the U.S. government's official web portal to all federal, state and local government web resources and services.